Masthead Graphic

Historical weather data from Belfast International Airport

The table below shows the weather reports for the last 24 hours taken from the METAR weather bulletins issued by Belfast International Airport. Readings should be at 30 min intervals however they are not always available

Date Time Pressure mb Temp. Wind Kts Wind Dir. Gusts Kts Conditions
13/10/2019 11:20:00 1000 9 5 260 mostly cloudy
light rain
13/10/2019 10:20:00 999 9 2 Variable mostly cloudy
light rain
13/10/2019 09:20:00 1000 8 3 70 mostly cloudy
light rain
13/10/2019 08:50:00 1000 8 2 Variable scattered clouds
light rain
13/10/2019 08:20:00 1000 7 2 Variable partly cloudy
light rain
13/10/2019 07:50:00 999 7 4 80 partly cloudy
13/10/2019 07:20:00 999 7 5 80 partly cloudy
13/10/2019 06:50:00 1000 7 4 90 clear skies
13/10/2019 06:20:00 1000 6 4 90 clear skies
13/10/2019 05:50:00 1000 5 4 90 clear skies
13/10/2019 05:20:00 1000 6 3 80 clear skies
13/10/2019 04:50:00 1000 6 4 90 clear skies
13/10/2019 04:20:00 1001 5 2 90 clear skies
13/10/2019 03:50:00 1001 5 4 90 clear skies
13/10/2019 03:20:00 1001 4 3 80 clear skies
13/10/2019 02:50:00 1001 4 2 80 clear skies
13/10/2019 01:50:00 1002 6 5 150 clear skies
13/10/2019 01:20:00 1002 7 5 150 clear skies
13/10/2019 00:50:00 1002 7 4 160 clear skies
13/10/2019 00:20:00 1002 7 4 150 clear skies
12/10/2019 23:50:00 1002 7 3 130 clear skies
12/10/2019 23:20:00 1002 8 4 160 clear skies
12/10/2019 22:50:00 1003 8 5 160 partly cloudy
12/10/2019 22:20:00 1003 8 5 140 clear skies
First Previous